sensor_id;sensor_type;location;lat;lon;timestamp;P1;durP1;ratioP1;P2;durP2;ratioP2
21798;SDS011;24973;47.178;15.316;2023-12-07T00:01:00;0.80;;;0.80;;
21798;SDS011;24973;47.178;15.316;2023-12-07T00:03:49;0.80;;;0.80;;
21798;SDS011;24973;47.178;15.316;2023-12-07T00:06:38;1.20;;;1.20;;
21798;SDS011;24973;47.178;15.316;2023-12-07T00:09:27;0.70;;;0.70;;
21798;SDS011;24973;47.178;15.316;2023-12-07T00:12:16;2.00;;;1.73;;
21798;SDS011;24973;47.178;15.316;2023-12-07T00:15:07;6.00;;;3.10;;
21798;SDS011;24973;47.178;15.316;2023-12-07T00:17:57;1.70;;;1.60;;
21798;SDS011;24973;47.178;15.316;2023-12-07T00:20:47;1.60;;;1.50;;
21798;SDS011;24973;47.178;15.316;2023-12-07T00:23:36;0.80;;;0.80;;
21798;SDS011;24973;47.178;15.316;2023-12-07T00:26:25;0.97;;;0.97;;
21798;SDS011;24973;47.178;15.316;2023-12-07T00:29:14;1.87;;;1.80;;
21798;SDS011;24973;47.178;15.316;2023-12-07T00:32:05;1.30;;;1.23;;
21798;SDS011;24973;47.178;15.316;2023-12-07T00:34:54;1.83;;;1.73;;
21798;SDS011;24973;47.178;15.316;2023-12-07T00:37:43;1.10;;;1.10;;
21798;SDS011;24973;47.178;15.316;2023-12-07T00:40:32;1.00;;;1.00;;
21798;SDS011;24973;47.178;15.316;2023-12-07T00:43:23;0.90;;;0.90;;
21798;SDS011;24973;47.178;15.316;2023-12-07T00:46:12;0.93;;;0.93;;
21798;SDS011;24973;47.178;15.316;2023-12-07T00:49:03;1.30;;;1.30;;
21798;SDS011;24973;47.178;15.316;2023-12-07T00:51:52;1.13;;;1.13;;
21798;SDS011;24973;47.178;15.316;2023-12-07T00:54:41;0.70;;;0.70;;
21798;SDS011;24973;47.178;15.316;2023-12-07T00:57:30;0.80;;;0.80;;
21798;SDS011;24973;47.178;15.316;2023-12-07T01:00:19;0.90;;;0.90;;
21798;SDS011;24973;47.178;15.316;2023-12-07T01:03:09;0.70;;;0.70;;
21798;SDS011;24973;47.178;15.316;2023-12-07T01:05:59;1.00;;;1.00;;
21798;SDS011;24973;47.178;15.316;2023-12-07T01:08:48;1.00;;;1.00;;
21798;SDS011;24973;47.178;15.316;2023-12-07T01:11:37;0.80;;;0.80;;
21798;SDS011;24973;47.178;15.316;2023-12-07T01:14:27;1.00;;;1.00;;
21798;SDS011;24973;47.178;15.316;2023-12-07T01:17:16;0.70;;;0.70;;
21798;SDS011;24973;47.178;15.316;2023-12-07T01:20:05;0.73;;;0.73;;
21798;SDS011;24973;47.178;15.316;2023-12-07T01:23:00;0.90;;;0.90;;
21798;SDS011;24973;47.178;15.316;2023-12-07T01:25:49;1.03;;;1.03;;
21798;SDS011;24973;47.178;15.316;2023-12-07T01:28:38;1.07;;;1.07;;
21798;SDS011;24973;47.178;15.316;2023-12-07T01:31:27;0.90;;;0.90;;
21798;SDS011;24973;47.178;15.316;2023-12-07T01:34:16;0.80;;;0.80;;
21798;SDS011;24973;47.178;15.316;2023-12-07T01:37:05;0.60;;;0.60;;
21798;SDS011;24973;47.178;15.316;2023-12-07T01:39:56;0.80;;;0.80;;
21798;SDS011;24973;47.178;15.316;2023-12-07T01:42:54;1.00;;;1.00;;
21798;SDS011;24973;47.178;15.316;2023-12-07T01:45:43;1.00;;;1.00;;
21798;SDS011;24973;47.178;15.316;2023-12-07T01:48:32;0.80;;;0.80;;
21798;SDS011;24973;47.178;15.316;2023-12-07T01:51:21;0.60;;;0.60;;
21798;SDS011;24973;47.178;15.316;2023-12-07T01:54:10;0.60;;;0.60;;
21798;SDS011;24973;47.178;15.316;2023-12-07T01:57:00;0.90;;;0.90;;
21798;SDS011;24973;47.178;15.316;2023-12-07T01:59:50;0.80;;;0.80;;
21798;SDS011;24973;47.178;15.316;2023-12-07T02:02:39;0.60;;;0.60;;
21798;SDS011;24973;47.178;15.316;2023-12-07T02:05:28;0.90;;;0.90;;
21798;SDS011;24973;47.178;15.316;2023-12-07T02:08:17;0.70;;;0.70;;
21798;SDS011;24973;47.178;15.316;2023-12-07T02:11:07;0.83;;;0.83;;
21798;SDS011;24973;47.178;15.316;2023-12-07T02:13:58;0.83;;;0.83;;
21798;SDS011;24973;47.178;15.316;2023-12-07T02:16:48;0.67;;;0.67;;
21798;SDS011;24973;47.178;15.316;2023-12-07T02:19:49;0.60;;;0.60;;
21798;SDS011;24973;47.178;15.316;2023-12-07T02:22:53;0.80;;;0.80;;
21798;SDS011;24973;47.178;15.316;2023-12-07T02:25:44;0.60;;;0.60;;
21798;SDS011;24973;47.178;15.316;2023-12-07T02:28:41;0.60;;;0.60;;
21798;SDS011;24973;47.178;15.316;2023-12-07T02:31:30;0.80;;;0.80;;
21798;SDS011;24973;47.178;15.316;2023-12-07T02:34:20;0.50;;;0.50;;
21798;SDS011;24973;47.178;15.316;2023-12-07T02:37:09;0.60;;;0.60;;
21798;SDS011;24973;47.178;15.316;2023-12-07T02:39:58;0.63;;;0.63;;
21798;SDS011;24973;47.178;15.316;2023-12-07T02:42:47;0.77;;;0.77;;
21798;SDS011;24973;47.178;15.316;2023-12-07T02:45:38;0.73;;;0.73;;
21798;SDS011;24973;47.178;15.316;2023-12-07T02:48:27;0.60;;;0.60;;
21798;SDS011;24973;47.178;15.316;2023-12-07T02:51:17;0.70;;;0.70;;
21798;SDS011;24973;47.178;15.316;2023-12-07T02:54:06;0.50;;;0.50;;
21798;SDS011;24973;47.178;15.316;2023-12-07T02:56:55;0.73;;;0.73;;
21798;SDS011;24973;47.178;15.316;2023-12-07T02:59:44;0.60;;;0.60;;
21798;SDS011;24973;47.178;15.316;2023-12-07T03:02:34;0.57;;;0.57;;
21798;SDS011;24973;47.178;15.316;2023-12-07T03:05:24;0.67;;;0.67;;
21798;SDS011;24973;47.178;15.316;2023-12-07T03:08:13;0.60;;;0.60;;
21798;SDS011;24973;47.178;15.316;2023-12-07T03:11:02;0.70;;;0.70;;
21798;SDS011;24973;47.178;15.316;2023-12-07T03:13:53;0.60;;;0.60;;
21798;SDS011;24973;47.178;15.316;2023-12-07T03:16:42;0.60;;;0.60;;
21798;SDS011;24973;47.178;15.316;2023-12-07T03:19:32;0.80;;;0.80;;
21798;SDS011;24973;47.178;15.316;2023-12-07T03:22:21;0.60;;;0.60;;
21798;SDS011;24973;47.178;15.316;2023-12-07T03:25:11;0.50;;;0.50;;
21798;SDS011;24973;47.178;15.316;2023-12-07T03:28:00;0.57;;;0.57;;
21798;SDS011;24973;47.178;15.316;2023-12-07T03:30:49;0.80;;;0.80;;
21798;SDS011;24973;47.178;15.316;2023-12-07T03:33:38;0.60;;;0.60;;
21798;SDS011;24973;47.178;15.316;2023-12-07T03:36:30;0.53;;;0.53;;
21798;SDS011;24973;47.178;15.316;2023-12-07T03:39:20;0.50;;;0.50;;
21798;SDS011;24973;47.178;15.316;2023-12-07T03:42:09;0.70;;;0.70;;
21798;SDS011;24973;47.178;15.316;2023-12-07T03:44:58;0.70;;;0.70;;
21798;SDS011;24973;47.178;15.316;2023-12-07T03:47:47;0.63;;;0.63;;
21798;SDS011;24973;47.178;15.316;2023-12-07T03:50:36;0.80;;;0.80;;
21798;SDS011;24973;47.178;15.316;2023-12-07T03:53:26;0.60;;;0.60;;
21798;SDS011;24973;47.178;15.316;2023-12-07T03:56:22;0.60;;;0.60;;
21798;SDS011;24973;47.178;15.316;2023-12-07T03:59:11;0.63;;;0.63;;
21798;SDS011;24973;47.178;15.316;2023-12-07T04:02:00;0.70;;;0.70;;
21798;SDS011;24973;47.178;15.316;2023-12-07T04:04:49;0.63;;;0.63;;
21798;SDS011;24973;47.178;15.316;2023-12-07T04:07:38;0.70;;;0.70;;
21798;SDS011;24973;47.178;15.316;2023-12-07T04:10:29;0.70;;;0.70;;
21798;SDS011;24973;47.178;15.316;2023-12-07T04:13:18;0.70;;;0.70;;
21798;SDS011;24973;47.178;15.316;2023-12-07T04:16:07;0.50;;;0.50;;
21798;SDS011;24973;47.178;15.316;2023-12-07T04:18:56;0.60;;;0.60;;
21798;SDS011;24973;47.178;15.316;2023-12-07T04:21:45;0.53;;;0.53;;
21798;SDS011;24973;47.178;15.316;2023-12-07T04:24:34;0.63;;;0.63;;
21798;SDS011;24973;47.178;15.316;2023-12-07T04:27:24;0.60;;;0.60;;
21798;SDS011;24973;47.178;15.316;2023-12-07T04:30:13;0.60;;;0.60;;
21798;SDS011;24973;47.178;15.316;2023-12-07T04:33:02;0.50;;;0.50;;
21798;SDS011;24973;47.178;15.316;2023-12-07T04:35:51;0.83;;;0.83;;
21798;SDS011;24973;47.178;15.316;2023-12-07T04:38:40;0.70;;;0.70;;
21798;SDS011;24973;47.178;15.316;2023-12-07T04:41:29;0.60;;;0.60;;
21798;SDS011;24973;47.178;15.316;2023-12-07T04:44:19;0.50;;;0.50;;
21798;SDS011;24973;47.178;15.316;2023-12-07T04:47:08;0.50;;;0.50;;
21798;SDS011;24973;47.178;15.316;2023-12-07T04:49:57;0.53;;;0.53;;
21798;SDS011;24973;47.178;15.316;2023-12-07T04:52:46;0.50;;;0.50;;
21798;SDS011;24973;47.178;15.316;2023-12-07T04:55:35;0.63;;;0.63;;
21798;SDS011;24973;47.178;15.316;2023-12-07T04:58:24;0.70;;;0.70;;
21798;SDS011;24973;47.178;15.316;2023-12-07T05:01:14;0.43;;;0.43;;
21798;SDS011;24973;47.178;15.316;2023-12-07T05:04:03;0.70;;;0.70;;
21798;SDS011;24973;47.178;15.316;2023-12-07T05:06:52;0.70;;;0.70;;
21798;SDS011;24973;47.178;15.316;2023-12-07T05:09:42;0.50;;;0.50;;
21798;SDS011;24973;47.178;15.316;2023-12-07T05:12:31;0.60;;;0.60;;
21798;SDS011;24973;47.178;15.316;2023-12-07T05:15:23;0.70;;;0.70;;
21798;SDS011;24973;47.178;15.316;2023-12-07T05:18:14;0.70;;;0.70;;
21798;SDS011;24973;47.178;15.316;2023-12-07T05:21:09;0.50;;;0.50;;
21798;SDS011;24973;47.178;15.316;2023-12-07T05:23:58;0.60;;;0.60;;
21798;SDS011;24973;47.178;15.316;2023-12-07T05:26:47;0.70;;;0.70;;
21798;SDS011;24973;47.178;15.316;2023-12-07T05:29:36;0.50;;;0.50;;
21798;SDS011;24973;47.178;15.316;2023-12-07T05:32:25;0.60;;;0.60;;
21798;SDS011;24973;47.178;15.316;2023-12-07T05:35:16;0.50;;;0.50;;
21798;SDS011;24973;47.178;15.316;2023-12-07T05:38:05;0.50;;;0.50;;
21798;SDS011;24973;47.178;15.316;2023-12-07T05:40:54;0.70;;;0.70;;
21798;SDS011;24973;47.178;15.316;2023-12-07T05:43:43;0.50;;;0.50;;
21798;SDS011;24973;47.178;15.316;2023-12-07T05:46:32;0.70;;;0.70;;
21798;SDS011;24973;47.178;15.316;2023-12-07T05:49:23;0.60;;;0.60;;
21798;SDS011;24973;47.178;15.316;2023-12-07T05:52:13;0.63;;;0.63;;
21798;SDS011;24973;47.178;15.316;2023-12-07T05:55:03;0.70;;;0.70;;
21798;SDS011;24973;47.178;15.316;2023-12-07T05:57:55;0.70;;;0.70;;
21798;SDS011;24973;47.178;15.316;2023-12-07T06:00:44;0.70;;;0.70;;
21798;SDS011;24973;47.178;15.316;2023-12-07T06:03:34;0.70;;;0.70;;
21798;SDS011;24973;47.178;15.316;2023-12-07T06:06:23;0.60;;;0.60;;
21798;SDS011;24973;47.178;15.316;2023-12-07T06:09:13;0.57;;;0.57;;
21798;SDS011;24973;47.178;15.316;2023-12-07T06:12:02;0.80;;;0.80;;
21798;SDS011;24973;47.178;15.316;2023-12-07T06:14:52;0.57;;;0.57;;
21798;SDS011;24973;47.178;15.316;2023-12-07T06:17:41;0.60;;;0.60;;
21798;SDS011;24973;47.178;15.316;2023-12-07T06:20:30;0.57;;;0.57;;
21798;SDS011;24973;47.178;15.316;2023-12-07T06:23:20;0.57;;;0.57;;
21798;SDS011;24973;47.178;15.316;2023-12-07T06:26:10;0.70;;;0.70;;
21798;SDS011;24973;47.178;15.316;2023-12-07T06:28:59;0.63;;;0.63;;
21798;SDS011;24973;47.178;15.316;2023-12-07T06:31:48;0.60;;;0.60;;
21798;SDS011;24973;47.178;15.316;2023-12-07T06:34:39;0.60;;;0.60;;
21798;SDS011;24973;47.178;15.316;2023-12-07T06:37:29;0.60;;;0.60;;
21798;SDS011;24973;47.178;15.316;2023-12-07T06:40:18;0.80;;;0.80;;
21798;SDS011;24973;47.178;15.316;2023-12-07T06:43:09;0.70;;;0.70;;
21798;SDS011;24973;47.178;15.316;2023-12-07T06:45:58;0.40;;;0.40;;
21798;SDS011;24973;47.178;15.316;2023-12-07T06:48:47;0.57;;;0.57;;
21798;SDS011;24973;47.178;15.316;2023-12-07T06:51:37;0.50;;;0.50;;
21798;SDS011;24973;47.178;15.316;2023-12-07T06:54:25;0.60;;;0.60;;
21798;SDS011;24973;47.178;15.316;2023-12-07T06:57:14;0.60;;;0.60;;
21798;SDS011;24973;47.178;15.316;2023-12-07T07:00:05;0.60;;;0.60;;
21798;SDS011;24973;47.178;15.316;2023-12-07T07:02:57;0.60;;;0.60;;
21798;SDS011;24973;47.178;15.316;2023-12-07T07:05:46;0.57;;;0.57;;
21798;SDS011;24973;47.178;15.316;2023-12-07T07:08:35;0.50;;;0.50;;
21798;SDS011;24973;47.178;15.316;2023-12-07T07:11:24;0.70;;;0.70;;
21798;SDS011;24973;47.178;15.316;2023-12-07T07:14:13;0.70;;;0.70;;
21798;SDS011;24973;47.178;15.316;2023-12-07T07:17:03;0.70;;;0.70;;
21798;SDS011;24973;47.178;15.316;2023-12-07T07:19:53;0.90;;;0.90;;
21798;SDS011;24973;47.178;15.316;2023-12-07T07:22:42;0.80;;;0.80;;
21798;SDS011;24973;47.178;15.316;2023-12-07T07:25:31;0.80;;;0.80;;
21798;SDS011;24973;47.178;15.316;2023-12-07T07:28:21;0.80;;;0.80;;
21798;SDS011;24973;47.178;15.316;2023-12-07T07:31:10;0.80;;;0.80;;
21798;SDS011;24973;47.178;15.316;2023-12-07T07:34:00;0.73;;;0.73;;
21798;SDS011;24973;47.178;15.316;2023-12-07T07:36:49;0.50;;;0.50;;
21798;SDS011;24973;47.178;15.316;2023-12-07T07:39:41;0.70;;;0.70;;
21798;SDS011;24973;47.178;15.316;2023-12-07T07:42:30;1.00;;;1.00;;
21798;SDS011;24973;47.178;15.316;2023-12-07T07:45:19;0.60;;;0.60;;
21798;SDS011;24973;47.178;15.316;2023-12-07T07:48:08;0.57;;;0.57;;
21798;SDS011;24973;47.178;15.316;2023-12-07T07:50:59;0.80;;;0.80;;
21798;SDS011;24973;47.178;15.316;2023-12-07T07:53:47;0.53;;;0.53;;
21798;SDS011;24973;47.178;15.316;2023-12-07T07:56:36;0.60;;;0.60;;
21798;SDS011;24973;47.178;15.316;2023-12-07T07:59:25;0.70;;;0.70;;
21798;SDS011;24973;47.178;15.316;2023-12-07T08:02:14;0.60;;;0.60;;
21798;SDS011;24973;47.178;15.316;2023-12-07T08:05:03;0.53;;;0.53;;
21798;SDS011;24973;47.178;15.316;2023-12-07T08:07:54;0.80;;;0.80;;
21798;SDS011;24973;47.178;15.316;2023-12-07T08:10:43;0.60;;;0.60;;
21798;SDS011;24973;47.178;15.316;2023-12-07T08:13:32;0.60;;;0.60;;
21798;SDS011;24973;47.178;15.316;2023-12-07T08:16:21;0.50;;;0.50;;
21798;SDS011;24973;47.178;15.316;2023-12-07T08:19:11;0.80;;;0.80;;
21798;SDS011;24973;47.178;15.316;2023-12-07T08:22:00;0.60;;;0.60;;
21798;SDS011;24973;47.178;15.316;2023-12-07T08:24:50;0.67;;;0.67;;
21798;SDS011;24973;47.178;15.316;2023-12-07T08:27:41;0.50;;;0.50;;
21798;SDS011;24973;47.178;15.316;2023-12-07T08:30:31;0.50;;;0.50;;
21798;SDS011;24973;47.178;15.316;2023-12-07T08:33:20;0.50;;;0.50;;
21798;SDS011;24973;47.178;15.316;2023-12-07T08:36:09;0.60;;;0.60;;
21798;SDS011;24973;47.178;15.316;2023-12-07T08:38:58;0.60;;;0.60;;
21798;SDS011;24973;47.178;15.316;2023-12-07T08:41:48;0.73;;;0.73;;
21798;SDS011;24973;47.178;15.316;2023-12-07T08:44:38;0.80;;;0.80;;
21798;SDS011;24973;47.178;15.316;2023-12-07T08:47:27;0.50;;;0.50;;
21798;SDS011;24973;47.178;15.316;2023-12-07T08:50:18;0.53;;;0.53;;
21798;SDS011;24973;47.178;15.316;2023-12-07T08:53:07;0.70;;;0.70;;
21798;SDS011;24973;47.178;15.316;2023-12-07T08:55:56;0.80;;;0.80;;
21798;SDS011;24973;47.178;15.316;2023-12-07T08:58:47;0.60;;;0.60;;
21798;SDS011;24973;47.178;15.316;2023-12-07T09:01:38;0.60;;;0.60;;
21798;SDS011;24973;47.178;15.316;2023-12-07T09:04:27;0.60;;;0.60;;
21798;SDS011;24973;47.178;15.316;2023-12-07T09:07:17;0.60;;;0.60;;
21798;SDS011;24973;47.178;15.316;2023-12-07T09:10:07;0.50;;;0.50;;
21798;SDS011;24973;47.178;15.316;2023-12-07T09:12:58;0.83;;;0.83;;
21798;SDS011;24973;47.178;15.316;2023-12-07T09:15:48;0.70;;;0.70;;
21798;SDS011;24973;47.178;15.316;2023-12-07T09:18:38;0.60;;;0.60;;
21798;SDS011;24973;47.178;15.316;2023-12-07T09:21:29;0.50;;;0.50;;
21798;SDS011;24973;47.178;15.316;2023-12-07T09:24:19;0.50;;;0.50;;
21798;SDS011;24973;47.178;15.316;2023-12-07T09:27:08;0.60;;;0.60;;
21798;SDS011;24973;47.178;15.316;2023-12-07T09:29:58;0.93;;;0.93;;
21798;SDS011;24973;47.178;15.316;2023-12-07T09:32:49;0.77;;;0.77;;
21798;SDS011;24973;47.178;15.316;2023-12-07T09:35:38;0.60;;;0.60;;
21798;SDS011;24973;47.178;15.316;2023-12-07T09:38:27;0.70;;;0.70;;
21798;SDS011;24973;47.178;15.316;2023-12-07T09:41:17;0.50;;;0.50;;
21798;SDS011;24973;47.178;15.316;2023-12-07T09:44:07;0.80;;;0.80;;
21798;SDS011;24973;47.178;15.316;2023-12-07T09:46:57;0.80;;;0.80;;
21798;SDS011;24973;47.178;15.316;2023-12-07T09:49:47;0.60;;;0.60;;
21798;SDS011;24973;47.178;15.316;2023-12-07T09:52:37;0.60;;;0.60;;
21798;SDS011;24973;47.178;15.316;2023-12-07T09:55:29;0.70;;;0.70;;
21798;SDS011;24973;47.178;15.316;2023-12-07T09:58:20;0.80;;;0.80;;
21798;SDS011;24973;47.178;15.316;2023-12-07T10:01:11;0.80;;;0.80;;
21798;SDS011;24973;47.178;15.316;2023-12-07T10:07:14;0.50;;;0.50;;
21798;SDS011;24973;47.178;15.316;2023-12-07T10:10:03;0.60;;;0.60;;
21798;SDS011;24973;47.178;15.316;2023-12-07T10:12:54;0.60;;;0.60;;
21798;SDS011;24973;47.178;15.316;2023-12-07T10:15:44;0.70;;;0.70;;
21798;SDS011;24973;47.178;15.316;2023-12-07T10:18:33;0.60;;;0.60;;
21798;SDS011;24973;47.178;15.316;2023-12-07T10:21:31;0.70;;;0.70;;
21798;SDS011;24973;47.178;15.316;2023-12-07T10:24:22;0.70;;;0.70;;
21798;SDS011;24973;47.178;15.316;2023-12-07T10:27:13;0.83;;;0.83;;
21798;SDS011;24973;47.178;15.316;2023-12-07T10:30:02;0.73;;;0.73;;
21798;SDS011;24973;47.178;15.316;2023-12-07T10:32:53;0.63;;;0.63;;
21798;SDS011;24973;47.178;15.316;2023-12-07T10:35:42;0.77;;;0.77;;
21798;SDS011;24973;47.178;15.316;2023-12-07T10:38:31;0.50;;;0.50;;
21798;SDS011;24973;47.178;15.316;2023-12-07T10:41:22;0.60;;;0.60;;
21798;SDS011;24973;47.178;15.316;2023-12-07T10:44:13;0.67;;;0.67;;
21798;SDS011;24973;47.178;15.316;2023-12-07T10:47:04;1.00;;;1.00;;
21798;SDS011;24973;47.178;15.316;2023-12-07T10:49:57;0.70;;;0.70;;
21798;SDS011;24973;47.178;15.316;2023-12-07T10:52:52;0.60;;;0.60;;
21798;SDS011;24973;47.178;15.316;2023-12-07T10:55:47;0.90;;;0.90;;
21798;SDS011;24973;47.178;15.316;2023-12-07T10:58:42;0.80;;;0.80;;
21798;SDS011;24973;47.178;15.316;2023-12-07T11:01:33;0.77;;;0.77;;
21798;SDS011;24973;47.178;15.316;2023-12-07T11:04:22;0.60;;;0.60;;
21798;SDS011;24973;47.178;15.316;2023-12-07T11:07:14;0.70;;;0.70;;
21798;SDS011;24973;47.178;15.316;2023-12-07T11:10:09;0.97;;;0.97;;
21798;SDS011;24973;47.178;15.316;2023-12-07T11:13:06;0.87;;;0.87;;
21798;SDS011;24973;47.178;15.316;2023-12-07T11:16:04;1.00;;;1.00;;
21798;SDS011;24973;47.178;15.316;2023-12-07T11:18:53;0.57;;;0.57;;
21798;SDS011;24973;47.178;15.316;2023-12-07T11:21:42;0.77;;;0.77;;
21798;SDS011;24973;47.178;15.316;2023-12-07T11:24:31;0.60;;;0.60;;
21798;SDS011;24973;47.178;15.316;2023-12-07T11:27:21;1.83;;;1.50;;
21798;SDS011;24973;47.178;15.316;2023-12-07T11:30:10;3.37;;;2.30;;
21798;SDS011;24973;47.178;15.316;2023-12-07T11:33:04;4.80;;;2.23;;
21798;SDS011;24973;47.178;15.316;2023-12-07T11:36:03;6.50;;;2.87;;
21798;SDS011;24973;47.178;15.316;2023-12-07T11:42:15;6.43;;;2.80;;
21798;SDS011;24973;47.178;15.316;2023-12-07T11:45:05;7.30;;;3.47;;
21798;SDS011;24973;47.178;15.316;2023-12-07T11:48:07;4.80;;;2.23;;
21798;SDS011;24973;47.178;15.316;2023-12-07T11:51:00;7.73;;;3.60;;
21798;SDS011;24973;47.178;15.316;2023-12-07T11:53:51;5.30;;;2.30;;
21798;SDS011;24973;47.178;15.316;2023-12-07T11:56:40;6.43;;;2.67;;
21798;SDS011;24973;47.178;15.316;2023-12-07T11:59:30;3.73;;;1.70;;
21798;SDS011;24973;47.178;15.316;2023-12-07T12:02:19;9.27;;;3.63;;
21798;SDS011;24973;47.178;15.316;2023-12-07T12:05:10;11.33;;;4.20;;
21798;SDS011;24973;47.178;15.316;2023-12-07T12:07:59;13.37;;;4.77;;
21798;SDS011;24973;47.178;15.316;2023-12-07T12:10:49;10.50;;;3.53;;
21798;SDS011;24973;47.178;15.316;2023-12-07T12:13:40;5.30;;;1.87;;
21798;SDS011;24973;47.178;15.316;2023-12-07T12:16:29;5.10;;;2.00;;
21798;SDS011;24973;47.178;15.316;2023-12-07T12:19:18;10.57;;;3.90;;
21798;SDS011;24973;47.178;15.316;2023-12-07T12:22:10;14.77;;;5.40;;
21798;SDS011;24973;47.178;15.316;2023-12-07T12:24:59;10.83;;;4.23;;
21798;SDS011;24973;47.178;15.316;2023-12-07T12:27:48;4.93;;;2.10;;
21798;SDS011;24973;47.178;15.316;2023-12-07T12:30:39;6.27;;;2.90;;
21798;SDS011;24973;47.178;15.316;2023-12-07T12:33:28;3.77;;;1.90;;
21798;SDS011;24973;47.178;15.316;2023-12-07T12:36:19;2.83;;;1.50;;
21798;SDS011;24973;47.178;15.316;2023-12-07T12:39:11;8.73;;;4.57;;
21798;SDS011;24973;47.178;15.316;2023-12-07T12:42:03;5.63;;;3.13;;
21798;SDS011;24973;47.178;15.316;2023-12-07T12:44:52;2.90;;;1.53;;
21798;SDS011;24973;47.178;15.316;2023-12-07T12:47:42;4.00;;;2.00;;
21798;SDS011;24973;47.178;15.316;2023-12-07T12:50:35;3.23;;;1.77;;
21798;SDS011;24973;47.178;15.316;2023-12-07T12:53:26;3.27;;;1.83;;
21798;SDS011;24973;47.178;15.316;2023-12-07T12:56:17;4.73;;;2.43;;
21798;SDS011;24973;47.178;15.316;2023-12-07T12:59:07;10.70;;;4.57;;
21798;SDS011;24973;47.178;15.316;2023-12-07T13:01:56;6.87;;;2.63;;
21798;SDS011;24973;47.178;15.316;2023-12-07T13:04:45;6.03;;;2.30;;
21798;SDS011;24973;47.178;15.316;2023-12-07T13:07:34;5.93;;;2.13;;
21798;SDS011;24973;47.178;15.316;2023-12-07T13:10:23;7.73;;;2.63;;
21798;SDS011;24973;47.178;15.316;2023-12-07T13:13:14;12.90;;;4.43;;
21798;SDS011;24973;47.178;15.316;2023-12-07T13:16:03;18.67;;;6.27;;
21798;SDS011;24973;47.178;15.316;2023-12-07T13:18:53;5.07;;;1.80;;
21798;SDS011;24973;47.178;15.316;2023-12-07T13:21:42;10.60;;;3.47;;
21798;SDS011;24973;47.178;15.316;2023-12-07T13:24:31;9.87;;;3.10;;
21798;SDS011;24973;47.178;15.316;2023-12-07T13:27:20;14.47;;;4.53;;
21798;SDS011;24973;47.178;15.316;2023-12-07T13:30:10;18.07;;;5.53;;
21798;SDS011;24973;47.178;15.316;2023-12-07T13:33:00;23.63;;;6.80;;
21798;SDS011;24973;47.178;15.316;2023-12-07T13:35:53;15.43;;;4.50;;
21798;SDS011;24973;47.178;15.316;2023-12-07T13:38:42;9.53;;;4.87;;
21798;SDS011;24973;47.178;15.316;2023-12-07T13:41:31;13.67;;;4.60;;
21798;SDS011;24973;47.178;15.316;2023-12-07T13:44:21;8.20;;;3.03;;
21798;SDS011;24973;47.178;15.316;2023-12-07T13:47:16;10.90;;;4.40;;
21798;SDS011;24973;47.178;15.316;2023-12-07T13:50:07;11.87;;;4.53;;
21798;SDS011;24973;47.178;15.316;2023-12-07T13:52:57;6.47;;;2.70;;
21798;SDS011;24973;47.178;15.316;2023-12-07T13:55:46;9.10;;;3.37;;
21798;SDS011;24973;47.178;15.316;2023-12-07T13:58:37;6.10;;;2.43;;
21798;SDS011;24973;47.178;15.316;2023-12-07T14:01:27;6.73;;;2.60;;
21798;SDS011;24973;47.178;15.316;2023-12-07T14:04:17;5.17;;;1.97;;
21798;SDS011;24973;47.178;15.316;2023-12-07T14:07:07;10.10;;;3.77;;
21798;SDS011;24973;47.178;15.316;2023-12-07T14:09:58;10.23;;;3.67;;
21798;SDS011;24973;47.178;15.316;2023-12-07T14:12:47;6.30;;;2.30;;
21798;SDS011;24973;47.178;15.316;2023-12-07T14:15:36;6.80;;;2.37;;
21798;SDS011;24973;47.178;15.316;2023-12-07T14:18:25;8.97;;;3.27;;
21798;SDS011;24973;47.178;15.316;2023-12-07T14:21:20;9.70;;;3.40;;
21798;SDS011;24973;47.178;15.316;2023-12-07T14:24:09;12.03;;;4.40;;
21798;SDS011;24973;47.178;15.316;2023-12-07T14:26:58;13.80;;;4.50;;
21798;SDS011;24973;47.178;15.316;2023-12-07T14:29:47;8.63;;;3.13;;
21798;SDS011;24973;47.178;15.316;2023-12-07T14:32:36;6.20;;;2.23;;
21798;SDS011;24973;47.178;15.316;2023-12-07T14:35:27;9.63;;;3.50;;
21798;SDS011;24973;47.178;15.316;2023-12-07T14:38:18;8.10;;;3.23;;
21798;SDS011;24973;47.178;15.316;2023-12-07T14:41:08;9.93;;;3.87;;
21798;SDS011;24973;47.178;15.316;2023-12-07T14:43:59;7.73;;;3.17;;
21798;SDS011;24973;47.178;15.316;2023-12-07T14:46:48;6.67;;;2.97;;
21798;SDS011;24973;47.178;15.316;2023-12-07T14:49:37;4.63;;;2.20;;
21798;SDS011;24973;47.178;15.316;2023-12-07T14:52:27;8.47;;;3.87;;
21798;SDS011;24973;47.178;15.316;2023-12-07T14:55:18;6.37;;;2.90;;
21798;SDS011;24973;47.178;15.316;2023-12-07T14:58:07;8.53;;;3.83;;
21798;SDS011;24973;47.178;15.316;2023-12-07T15:00:56;3.97;;;2.07;;
21798;SDS011;24973;47.178;15.316;2023-12-07T15:03:45;4.23;;;2.13;;
21798;SDS011;24973;47.178;15.316;2023-12-07T15:06:34;2.77;;;1.40;;
21798;SDS011;24973;47.178;15.316;2023-12-07T15:09:23;3.67;;;1.90;;
21798;SDS011;24973;47.178;15.316;2023-12-07T15:12:14;8.67;;;4.00;;
21798;SDS011;24973;47.178;15.316;2023-12-07T15:15:05;5.83;;;2.87;;
21798;SDS011;24973;47.178;15.316;2023-12-07T15:17:56;5.90;;;2.80;;
21798;SDS011;24973;47.178;15.316;2023-12-07T15:20:46;7.07;;;3.13;;
21798;SDS011;24973;47.178;15.316;2023-12-07T15:23:35;2.43;;;1.43;;
21798;SDS011;24973;47.178;15.316;2023-12-07T15:26:24;5.10;;;2.67;;
21798;SDS011;24973;47.178;15.316;2023-12-07T15:29:15;9.23;;;4.63;;
21798;SDS011;24973;47.178;15.316;2023-12-07T15:32:05;8.80;;;4.00;;
21798;SDS011;24973;47.178;15.316;2023-12-07T15:34:55;4.70;;;2.37;;
21798;SDS011;24973;47.178;15.316;2023-12-07T15:37:44;3.97;;;2.10;;
21798;SDS011;24973;47.178;15.316;2023-12-07T15:40:33;4.53;;;2.27;;
21798;SDS011;24973;47.178;15.316;2023-12-07T15:43:23;5.37;;;2.87;;
21798;SDS011;24973;47.178;15.316;2023-12-07T15:46:14;6.03;;;3.23;;
21798;SDS011;24973;47.178;15.316;2023-12-07T15:49:04;6.23;;;2.97;;
21798;SDS011;24973;47.178;15.316;2023-12-07T15:51:53;5.63;;;2.73;;
21798;SDS011;24973;47.178;15.316;2023-12-07T15:54:43;4.20;;;2.17;;
21798;SDS011;24973;47.178;15.316;2023-12-07T15:57:32;4.07;;;2.20;;
21798;SDS011;24973;47.178;15.316;2023-12-07T16:00:22;5.20;;;2.63;;
21798;SDS011;24973;47.178;15.316;2023-12-07T16:03:13;7.23;;;3.60;;
21798;SDS011;24973;47.178;15.316;2023-12-07T16:06:02;6.87;;;3.17;;
21798;SDS011;24973;47.178;15.316;2023-12-07T16:08:52;3.00;;;1.60;;
21798;SDS011;24973;47.178;15.316;2023-12-07T16:11:41;5.90;;;2.87;;
21798;SDS011;24973;47.178;15.316;2023-12-07T16:14:31;6.53;;;2.97;;
21798;SDS011;24973;47.178;15.316;2023-12-07T16:17:20;6.63;;;3.07;;
21798;SDS011;24973;47.178;15.316;2023-12-07T16:20:11;6.13;;;2.90;;
21798;SDS011;24973;47.178;15.316;2023-12-07T16:23:02;8.87;;;3.90;;
21798;SDS011;24973;47.178;15.316;2023-12-07T16:25:52;5.43;;;2.67;;
21798;SDS011;24973;47.178;15.316;2023-12-07T16:28:42;4.43;;;2.20;;
21798;SDS011;24973;47.178;15.316;2023-12-07T16:31:32;4.90;;;2.37;;
21798;SDS011;24973;47.178;15.316;2023-12-07T16:34:23;6.00;;;2.97;;
21798;SDS011;24973;47.178;15.316;2023-12-07T16:37:14;6.93;;;3.40;;
21798;SDS011;24973;47.178;15.316;2023-12-07T16:40:04;6.40;;;3.10;;
21798;SDS011;24973;47.178;15.316;2023-12-07T16:42:56;5.47;;;2.77;;
21798;SDS011;24973;47.178;15.316;2023-12-07T16:45:45;4.53;;;2.33;;
21798;SDS011;24973;47.178;15.316;2023-12-07T16:48:35;2.13;;;1.43;;
21798;SDS011;24973;47.178;15.316;2023-12-07T16:51:24;5.23;;;2.70;;
21798;SDS011;24973;47.178;15.316;2023-12-07T16:54:15;7.13;;;3.67;;